Time;durP1;ratioP1;P1;durP2;ratioP2;P2;SDS_P1;SDS_P2;PMS_P1;PMS_P2;Temp;Humidity;BMP_temperature;BMP_pressure;BME280_temperature;BME280_humidity;BME280_pressure;Samples;Min_cycle;Max_cycle;Signal;HPM_P1;HPM_P2
2023/06/04 00:01:16;;;;;;;0.73;0.70;;;23.50;49.30;;;;;;5065456;28;20620;-44
2023/06/04 00:03:46;;;;;;;1.77;0.77;;;23.50;49.30;;;;;;5060254;28;20194;-44
2023/06/04 00:06:19;;;;;;;0.80;0.80;;;23.50;49.30;;;;;;5054725;28;20206;-44
2023/06/04 00:08:50;;;;;;;0.80;0.80;;;23.50;49.40;;;;;;5057376;28;20283;-44
2023/06/04 00:11:22;;;;;;;0.80;0.80;;;23.50;49.40;;;;;;5058967;28;20247;-47
2023/06/04 00:13:54;;;;;;;1.20;0.97;;;23.40;49.40;;;;;;5052166;28;20228;-44
2023/06/04 00:16:23;;;;;;;1.43;1.10;;;23.40;49.40;;;;;;5063492;28;20236;-44
2023/06/04 00:18:56;;;;;;;1.00;1.00;;;23.40;49.40;;;;;;5070993;28;20206;-44
2023/06/04 00:21:25;;;;;;;1.20;0.83;;;23.40;49.50;;;;;;5066292;28;20741;-44
2023/06/04 00:23:58;;;;;;;1.30;0.80;;;23.40;49.40;;;;;;5059987;28;20224;-43
2023/06/04 00:26:42;;;;;;;1.07;0.77;;;23.30;49.40;;;;;;5068823;28;20792;-45
2023/06/04 00:29:14;;;;;;;0.90;0.90;;;23.40;49.60;;;;;;5059545;28;20201;-43
2023/06/04 00:31:44;;;;;;;0.90;0.90;;;23.30;49.40;;;;;;5055607;28;20636;-44
2023/06/04 00:34:14;;;;;;;1.10;0.80;;;23.30;49.50;;;;;;5062292;28;20290;-44
2023/06/04 00:36:42;;;;;;;0.97;0.90;;;23.30;49.60;;;;;;5071166;28;20236;-43
2023/06/04 00:39:13;;;;;;;0.80;0.80;;;23.30;49.60;;;;;;5076746;28;20189;-43
2023/06/04 00:41:44;;;;;;;1.03;0.83;;;23.30;49.60;;;;;;5067339;28;20699;-43
2023/06/04 00:44:14;;;;;;;0.87;0.87;;;23.30;49.60;;;;;;5068782;28;20544;-44
2023/06/04 00:46:45;;;;;;;1.63;1.10;;;23.30;49.60;;;;;;5065171;28;20213;-43
2023/06/04 00:49:14;;;;;;;1.07;0.97;;;23.20;49.60;;;;;;5074810;28;20655;-44
2023/06/04 00:51:46;;;;;;;0.80;0.80;;;23.20;49.60;;;;;;5071218;28;20681;-44
2023/06/04 00:54:20;;;;;;;1.00;0.90;;;23.20;49.50;;;;;;5067227;28;20233;-44
2023/06/04 00:56:48;;;;;;;1.07;0.90;;;23.20;49.70;;;;;;5054995;28;20240;-44
2023/06/04 00:59:22;;;;;;;2.00;1.00;;;23.20;49.70;;;;;;5060865;28;20215;-44
2023/06/04 01:02:26;;;;;;;0.80;0.80;;;23.20;49.70;;;;;;5071685;28;20197;-44
2023/06/04 01:05:30;;;;;;;0.97;0.80;;;23.20;49.60;;;;;;5067151;28;20262;-43
2023/06/04 01:08:02;;;;;;;1.40;1.00;;;23.20;49.70;;;;;;5051148;28;20222;-43
2023/06/04 01:10:32;;;;;;;0.83;0.70;;;23.10;49.70;;;;;;5029942;28;20203;-43
2023/06/04 01:13:02;;;;;;;2.50;1.00;;;23.10;49.80;;;;;;5057669;28;20628;-43
2023/06/04 01:15:34;;;;;;;1.10;1.00;;;23.10;49.80;;;;;;5040529;28;20292;-44
2023/06/04 01:18:05;;;;;;;1.00;0.80;;;23.10;49.80;;;;;;5061833;28;20226;-43
2023/06/04 01:20:53;;;;;;;0.90;0.90;;;23.10;49.80;;;;;;5065711;28;20214;-44
2023/06/04 01:24:01;;;;;;;0.60;0.60;;;23.10;49.90;;;;;;5067867;28;20189;-44
2023/06/04 01:26:37;;;;;;;0.77;0.77;;;23.00;49.90;;;;;;5024113;28;20203;-44
2023/06/04 01:29:07;;;;;;;1.33;1.10;;;23.00;49.80;;;;;;5032343;28;20203;-43
2023/06/04 01:31:43;;;;;;;1.03;0.90;;;23.00;49.90;;;;;;5035633;28;20271;-44
2023/06/04 01:34:14;;;;;;;1.00;0.90;;;23.00;49.80;;;;;;5014825;28;20576;-44
2023/06/04 01:36:43;;;;;;;1.13;0.97;;;23.00;49.90;;;;;;5032530;28;20719;-43
2023/06/04 01:39:13;;;;;;;1.00;0.97;;;23.00;49.80;;;;;;5035236;28;20214;-44
2023/06/04 01:41:44;;;;;;;0.80;0.80;;;23.00;49.90;;;;;;5026021;28;20222;-43
2023/06/04 01:44:13;;;;;;;1.07;0.90;;;23.00;49.90;;;;;;5037169;28;20644;-44
2023/06/04 01:46:44;;;;;;;1.20;0.77;;;23.00;49.90;;;;;;5037193;28;20198;-44
2023/06/04 01:49:16;;;;;;;1.00;0.83;;;22.90;49.80;;;;;;5042386;28;20202;-44
2023/06/04 01:51:47;;;;;;;0.87;0.70;;;23.00;49.90;;;;;;5047424;28;20202;-43
2023/06/04 01:54:19;;;;;;;1.33;0.93;;;22.90;49.90;;;;;;5047385;28;20191;-44
2023/06/04 01:56:48;;;;;;;0.80;0.80;;;22.90;49.90;;;;;;5046338;28;20238;-44
2023/06/04 01:59:21;;;;;;;1.10;0.70;;;22.90;49.90;;;;;;5049406;28;20505;-44
2023/06/04 02:01:53;;;;;;;0.70;0.70;;;22.90;50.00;;;;;;5050698;28;20276;-44
2023/06/04 02:04:22;;;;;;;0.80;0.60;;;22.90;50.00;;;;;;5042490;28;20423;-44
2023/06/04 02:06:59;;;;;;;1.13;0.90;;;22.90;49.90;;;;;;5037874;28;20199;-43
2023/06/04 02:09:27;;;;;;;0.93;0.93;;;22.90;50.00;;;;;;5046031;28;20234;-44
2023/06/04 02:11:57;;;;;;;1.07;0.83;;;22.90;50.00;;;;;;5048964;28;20191;-44
2023/06/04 02:14:29;;;;;;;1.07;0.97;;;22.80;49.90;;;;;;5046867;28;20202;-44
2023/06/04 02:17:17;;;;;;;0.70;0.67;;;22.90;50.00;;;;;;5049330;28;20661;-44
2023/06/04 02:19:51;;;;;;;1.17;0.87;;;22.90;50.00;;;;;;5047269;28;20194;-44
2023/06/04 02:22:21;;;;;;;1.03;0.93;;;22.80;50.00;;;;;;5045861;28;20203;-45
2023/06/04 02:25:09;;;;;;;0.87;0.87;;;22.90;50.00;;;;;;5050248;28;20198;-43
2023/06/04 02:27:40;;;;;;;0.87;0.87;;;22.80;49.90;;;;;;5047219;28;20217;-43
2023/06/04 02:30:10;;;;;;;2.93;0.90;;;22.80;49.90;;;;;;5047201;28;20186;-44
2023/06/04 02:32:44;;;;;;;0.90;0.80;;;22.80;50.00;;;;;;5042605;28;20210;-43
2023/06/04 02:35:22;;;;;;;1.10;1.00;;;22.80;50.00;;;;;;5047937;28;20240;-44
2023/06/04 02:37:53;;;;;;;0.80;0.80;;;22.80;50.00;;;;;;5039751;28;20307;-44
2023/06/04 02:40:26;;;;;;;0.80;0.80;;;22.80;50.00;;;;;;5049960;28;20265;-44
2023/06/04 02:42:55;;;;;;;2.10;0.90;;;22.80;50.00;;;;;;5068167;28;20201;-43
2023/06/04 02:45:24;;;;;;;0.83;0.83;;;22.80;50.00;;;;;;5033255;28;20217;-44
2023/06/04 02:47:53;;;;;;;0.80;0.80;;;22.80;50.00;;;;;;5036255;28;20190;-43
2023/06/04 02:50:23;;;;;;;1.97;0.70;;;22.80;50.00;;;;;;5068203;28;20197;-44
2023/06/04 02:52:53;;;;;;;1.03;0.90;;;22.80;50.00;;;;;;5068772;28;20199;-44
2023/06/04 02:55:21;;;;;;;2.77;0.70;;;22.80;50.00;;;;;;5069319;28;20198;-44
2023/06/04 02:57:51;;;;;;;1.50;0.90;;;22.80;50.00;;;;;;5049486;28;20302;-43
2023/06/04 03:00:25;;;;;;;1.00;0.87;;;22.80;50.10;;;;;;5068127;28;20260;-45
2023/06/04 03:03:01;;;;;;;0.93;0.60;;;22.80;50.10;;;;;;5064332;28;20205;-44
2023/06/04 03:05:44;;;;;;;0.90;0.80;;;22.80;50.10;;;;;;5069594;28;20232;-44
2023/06/04 03:08:17;;;;;;;1.20;1.00;;;22.80;50.10;;;;;;5051464;28;20218;-44
2023/06/04 03:10:52;;;;;;;1.17;0.77;;;22.80;50.10;;;;;;5065821;28;20217;-44
2023/06/04 03:13:23;;;;;;;0.80;0.80;;;22.70;50.00;;;;;;5023534;28;20205;-43
2023/06/04 03:15:55;;;;;;;1.00;0.90;;;22.70;50.00;;;;;;5069698;28;20705;-44
2023/06/04 03:18:23;;;;;;;1.00;0.90;;;22.70;50.00;;;;;;5066000;28;20222;-44
2023/06/04 03:20:56;;;;;;;0.77;0.77;;;22.70;50.00;;;;;;5067227;28;20351;-44
2023/06/04 03:23:27;;;;;;;1.50;0.90;;;22.70;50.10;;;;;;5057071;28;20263;-45
2023/06/04 03:25:57;;;;;;;1.10;0.80;;;22.70;50.10;;;;;;5069215;28;20196;-45
2023/06/04 03:28:27;;;;;;;2.83;0.80;;;22.70;50.10;;;;;;5066426;28;20233;-43
2023/06/04 03:30:59;;;;;;;1.00;0.90;;;22.70;50.00;;;;;;5051745;28;20284;-43
2023/06/04 03:33:31;;;;;;;0.70;0.63;;;22.70;50.10;;;;;;5065688;28;20222;-44
2023/06/04 03:36:03;;;;;;;0.80;0.80;;;22.60;50.10;;;;;;5069637;28;20205;-44
2023/06/04 03:38:37;;;;;;;2.20;0.90;;;22.60;50.10;;;;;;5066405;28;20854;-43
2023/06/04 03:41:07;;;;;;;1.30;0.90;;;22.60;50.10;;;;;;5068464;28;20248;-44
2023/06/04 03:43:38;;;;;;;0.80;0.80;;;22.60;50.10;;;;;;5068598;28;20193;-43
2023/06/04 03:46:08;;;;;;;0.90;0.80;;;22.60;50.10;;;;;;5063055;28;20228;-45
2023/06/04 03:48:41;;;;;;;0.70;0.70;;;22.60;50.10;;;;;;5066038;28;20217;-44
2023/06/04 03:51:13;;;;;;;1.30;0.90;;;22.60;50.10;;;;;;5026566;28;20662;-44
2023/06/04 03:53:42;;;;;;;0.80;0.73;;;22.60;50.10;;;;;;5068440;28;20197;-44
2023/06/04 03:56:13;;;;;;;1.33;0.90;;;22.60;50.10;;;;;;5068767;28;20190;-44
2023/06/04 03:58:43;;;;;;;1.10;0.90;;;22.60;50.10;;;;;;5063756;28;20678;-43
2023/06/04 04:01:14;;;;;;;1.00;0.80;;;22.60;50.10;;;;;;5068189;28;20189;-43
2023/06/04 04:03:48;;;;;;;1.17;0.83;;;22.60;50.10;;;;;;5068758;28;20224;-44
2023/06/04 04:06:21;;;;;;;0.70;0.63;;;22.60;50.10;;;;;;5068691;28;20250;-44
2023/06/04 04:08:50;;;;;;;0.73;0.73;;;22.50;50.10;;;;;;5064966;28;20563;-42
2023/06/04 04:11:21;;;;;;;2.23;0.83;;;22.60;50.10;;;;;;5068888;28;20255;-44
2023/06/04 04:13:52;;;;;;;1.00;0.80;;;22.50;50.10;;;;;;5068879;28;20189;-43
2023/06/04 04:16:20;;;;;;;0.80;0.60;;;22.50;50.10;;;;;;5053936;28;20551;-44
2023/06/04 04:18:51;;;;;;;0.83;0.83;;;22.50;50.10;;;;;;5049814;28;20218;-44
2023/06/04 04:21:23;;;;;;;1.13;0.70;;;22.50;50.10;;;;;;5048639;28;20245;-44
2023/06/04 04:23:51;;;;;;;0.70;0.60;;;22.50;50.10;;;;;;5073906;28;20197;-43
2023/06/04 04:26:21;;;;;;;0.80;0.80;;;22.50;50.10;;;;;;5062133;28;20205;-43
2023/06/04 04:28:57;;;;;;;0.70;0.70;;;22.50;50.10;;;;;;5068828;28;20190;-44
2023/06/04 04:31:37;;;;;;;2.20;0.70;;;22.50;50.10;;;;;;5067642;28;20537;-44
2023/06/04 04:34:08;;;;;;;0.73;0.73;;;22.50;50.10;;;;;;5067198;28;20202;-44
2023/06/04 04:36:40;;;;;;;0.60;0.60;;;22.50;50.20;;;;;;5053687;28;20722;-44
2023/06/04 04:39:11;;;;;;;0.80;0.70;;;22.50;50.20;;;;;;5068385;28;20210;-44
2023/06/04 04:41:43;;;;;;;0.73;0.63;;;22.50;50.10;;;;;;5067703;28;20342;-43
2023/06/04 04:44:13;;;;;;;1.27;1.00;;;22.50;50.20;;;;;;5069063;28;20248;-44
2023/06/04 04:46:42;;;;;;;0.70;0.70;;;22.50;50.20;;;;;;5049873;28;20194;-44
2023/06/04 04:49:17;;;;;;;1.10;0.87;;;22.40;50.10;;;;;;5071972;28;20203;-44
2023/06/04 04:51:47;;;;;;;1.00;0.90;;;22.50;50.10;;;;;;5071213;28;20255;-44
2023/06/04 04:54:17;;;;;;;0.70;0.70;;;22.50;50.10;;;;;;5055044;28;20197;-43
2023/06/04 04:56:50;;;;;;;1.00;0.70;;;22.50;50.10;;;;;;5069622;28;20648;-44
2023/06/04 04:59:42;;;;;;;0.60;0.60;;;22.50;50.10;;;;;;5072161;28;20197;-43
2023/06/04 05:02:15;;;;;;;0.70;0.70;;;22.40;50.10;;;;;;5071289;28;20566;-44
2023/06/04 05:04:46;;;;;;;1.30;0.80;;;22.40;50.10;;;;;;5069415;28;20291;-44
2023/06/04 05:07:21;;;;;;;0.60;0.60;;;22.50;50.10;;;;;;5071879;28;20182;-44
2023/06/04 05:09:52;;;;;;;0.80;0.80;;;22.40;50.10;;;;;;5069504;28;20214;-44
2023/06/04 05:12:25;;;;;;;1.00;0.87;;;22.40;50.10;;;;;;5070838;28;20197;-44
2023/06/04 05:14:57;;;;;;;0.73;0.70;;;22.40;50.00;;;;;;5075070;28;20596;-44
2023/06/04 05:17:29;;;;;;;0.97;0.67;;;22.40;50.00;;;;;;5071785;28;20632;-43
2023/06/04 05:20:03;;;;;;;1.57;0.90;;;22.40;50.00;;;;;;5054932;28;20193;-44
2023/06/04 05:22:36;;;;;;;1.30;1.10;;;22.40;50.00;;;;;;5066827;28;20213;-44
2023/06/04 05:25:08;;;;;;;3.80;0.90;;;22.40;50.00;;;;;;5056232;28;20213;-43
2023/06/04 05:27:41;;;;;;;1.23;1.00;;;22.40;50.10;;;;;;5068315;28;20585;-44
2023/06/04 05:30:10;;;;;;;0.90;0.70;;;22.40;50.00;;;;;;5052323;28;20240;-44
2023/06/04 05:32:40;;;;;;;2.47;0.87;;;22.40;50.00;;;;;;5065637;28;20568;-44
2023/06/04 05:35:12;;;;;;;2.60;0.80;;;22.40;50.00;;;;;;5059965;28;20206;-44
2023/06/04 05:37:45;;;;;;;1.20;0.80;;;22.40;50.00;;;;;;5070226;28;20220;-44
2023/06/04 05:40:14;;;;;;;8.73;0.77;;;22.40;50.00;;;;;;5070960;28;20197;-44
2023/06/04 05:42:52;;;;;;;6.93;1.00;;;22.40;50.30;;;;;;5051044;28;20543;-43
2023/06/04 05:45:23;;;;;;;1.10;0.93;;;22.40;50.40;;;;;;5048449;28;20221;-45
2023/06/04 05:47:55;;;;;;;3.63;0.90;;;22.40;50.50;;;;;;5054749;28;20205;-49
2023/06/04 05:50:30;;;;;;;7.60;0.87;;;22.40;50.70;;;;;;5050073;28;20198;-44
2023/06/04 05:53:00;;;;;;;6.93;1.03;;;22.40;50.70;;;;;;5044934;28;20207;-44
2023/06/04 05:55:31;;;;;;;7.17;1.03;;;22.50;50.90;;;;;;5052194;28;20187;-44
2023/06/04 05:58:02;;;;;;;2.40;0.80;;;22.50;50.90;;;;;;5032448;28;20238;-44
2023/06/04 06:00:30;;;;;;;5.03;1.00;;;22.40;50.80;;;;;;5054812;28;20206;-45
2023/06/04 06:03:01;;;;;;;2.10;0.90;;;22.50;50.80;;;;;;5050121;28;20740;-44
2023/06/04 06:05:35;;;;;;;3.17;0.97;;;22.40;50.80;;;;;;5048811;28;20191;-42
2023/06/04 06:08:04;;;;;;;2.60;0.93;;;22.40;50.60;;;;;;5047465;28;20203;-42
2023/06/04 06:10:37;;;;;;;2.90;1.23;;;22.40;50.50;;;;;;5043383;28;20218;-44
2023/06/04 06:13:07;;;;;;;3.97;1.10;;;22.40;50.50;;;;;;5046155;28;20202;-44
2023/06/04 06:15:35;;;;;;;3.23;0.90;;;22.40;50.50;;;;;;5048723;28;20216;-44
2023/06/04 06:18:04;;;;;;;1.37;0.80;;;22.40;50.40;;;;;;5045601;28;20651;-44
2023/06/04 06:20:33;;;;;;;3.37;0.90;;;22.40;50.90;;;;;;5041390;28;20229;-43
2023/06/04 06:23:09;;;;;;;1.20;0.87;;;22.40;50.30;;;;;;5055034;28;20245;-44
2023/06/04 06:25:45;;;;;;;1.87;0.80;;;22.40;50.20;;;;;;5047130;28;20204;-44
2023/06/04 06:28:18;;;;;;;1.40;0.90;;;22.40;50.10;;;;;;5047716;28;20267;-43
2023/06/04 06:30:49;;;;;;;2.80;1.00;;;22.40;50.00;;;;;;5049197;28;20194;-43
2023/06/04 06:33:21;;;;;;;1.97;0.93;;;22.40;50.00;;;;;;5049867;28;20241;-43
2023/06/04 06:35:51;;;;;;;1.37;0.87;;;22.40;50.00;;;;;;5048132;28;20207;-44
2023/06/04 06:38:23;;;;;;;1.13;0.83;;;22.40;49.90;;;;;;5050545;28;20282;-44
2023/06/04 06:40:53;;;;;;;2.87;1.07;;;22.40;49.90;;;;;;5049035;28;20237;-43
2023/06/04 06:43:25;;;;;;;0.77;0.73;;;22.40;49.80;;;;;;5052140;28;20534;-43
2023/06/04 06:45:56;;;;;;;2.30;1.17;;;22.40;49.80;;;;;;5064598;28;20229;-44
2023/06/04 06:48:26;;;;;;;3.03;1.33;;;22.40;49.70;;;;;;5052810;28;20251;-44
2023/06/04 06:50:56;;;;;;;2.67;0.97;;;22.40;49.60;;;;;;5056420;28;20772;-44
2023/06/04 06:53:26;;;;;;;2.90;1.13;;;22.40;49.60;;;;;;5068802;28;20197;-43
2023/06/04 06:55:57;;;;;;;1.77;0.87;;;22.40;49.60;;;;;;5061181;28;20205;-44
2023/06/04 06:58:26;;;;;;;3.67;1.00;;;22.40;49.70;;;;;;5063013;28;20233;-44
2023/06/04 07:00:57;;;;;;;1.77;1.17;;;22.50;50.00;;;;;;5069059;28;20186;-45
2023/06/04 07:03:31;;;;;;;3.40;1.27;;;22.60;50.10;;;;;;5051001;28;20201;-44
2023/06/04 07:06:02;;;;;;;4.93;1.30;;;22.70;49.90;;;;;;5065700;28;20201;-44
2023/06/04 07:08:33;;;;;;;3.00;1.23;;;22.70;49.90;;;;;;5063527;28;20201;-45
2023/06/04 07:11:02;;;;;;;3.47;1.80;;;22.70;50.10;;;;;;5070172;28;20258;-43
2023/06/04 07:13:35;;;;;;;4.07;2.03;;;22.70;50.60;;;;;;5068223;28;20605;-44
2023/06/04 07:16:06;;;;;;;4.63;1.97;;;22.70;51.50;;;;;;5069315;28;20198;-43
2023/06/04 07:18:38;;;;;;;5.17;2.00;;;22.70;52.20;;;;;;5066347;28;20210;-44
2023/06/04 07:21:08;;;;;;;5.03;1.83;;;22.70;52.40;;;;;;5067230;28;20223;-43
2023/06/04 07:23:38;;;;;;;4.03;1.97;;;22.70;52.90;;;;;;5066591;28;20613;-43
2023/06/04 07:26:09;;;;;;;4.37;1.80;;;22.60;53.60;;;;;;5063678;28;20204;-43
2023/06/04 07:28:37;;;;;;;4.63;2.00;;;22.60;53.60;;;;;;5049235;28;20201;-45
2023/06/04 07:31:08;;;;;;;2.83;1.67;;;22.60;54.40;;;;;;5069013;28;20197;-44
2023/06/04 07:33:42;;;;;;;2.40;1.60;;;22.60;54.90;;;;;;5048224;28;20214;-44
2023/06/04 07:36:25;;;;;;;4.53;1.83;;;22.60;54.90;;;;;;5068318;28;20237;-44
2023/06/04 07:38:53;;;;;;;4.73;1.80;;;22.60;54.70;;;;;;5069350;28;20205;-43
2023/06/04 07:41:21;;;;;;;3.33;1.90;;;22.60;55.00;;;;;;5068668;28;20230;-44
2023/06/04 07:43:52;;;;;;;2.17;1.60;;;22.60;55.70;;;;;;5051527;28;20214;-44
2023/06/04 07:46:20;;;;;;;2.90;1.63;;;22.60;56.00;;;;;;5048023;28;20217;-44
2023/06/04 07:48:52;;;;;;;4.00;1.50;;;22.60;56.00;;;;;;5068972;28;20663;-43
2023/06/04 07:51:22;;;;;;;2.93;1.50;;;22.60;56.20;;;;;;5062097;28;20271;-43
2023/06/04 07:53:57;;;;;;;2.83;1.50;;;22.60;56.40;;;;;;5067491;28;20201;-43
2023/06/04 07:56:26;;;;;;;2.77;1.40;;;22.60;56.60;;;;;;5070016;28;20266;-43
2023/06/04 07:58:55;;;;;;;2.00;1.50;;;22.60;56.40;;;;;;5073150;28;20240;-44
2023/06/04 08:01:26;;;;;;;3.37;1.60;;;22.70;56.60;;;;;;5072178;28;20243;-45
2023/06/04 08:03:56;;;;;;;2.80;1.50;;;22.60;56.40;;;;;;5068398;28;20209;-44
2023/06/04 08:06:27;;;;;;;1.37;1.03;;;22.60;56.70;;;;;;5066628;28;20189;-44
2023/06/04 08:09:00;;;;;;;2.33;1.50;;;22.60;56.70;;;;;;5065741;28;20516;-44
2023/06/04 08:11:33;;;;;;;2.80;1.30;;;22.60;56.60;;;;;;5067862;28;20209;-44
2023/06/04 08:14:03;;;;;;;2.40;1.40;;;22.70;57.10;;;;;;5068291;28;20193;-44
2023/06/04 08:16:32;;;;;;;2.70;1.30;;;22.70;57.10;;;;;;5059459;28;20544;-44
2023/06/04 08:19:01;;;;;;;2.53;1.30;;;22.60;56.80;;;;;;5051623;28;20733;-44
2023/06/04 08:21:33;;;;;;;3.03;1.40;;;22.60;56.70;;;;;;5069209;28;20209;-44
2023/06/04 08:24:05;;;;;;;2.83;1.13;;;22.70;57.20;;;;;;5072605;28;20200;-44
2023/06/04 08:26:37;;;;;;;2.60;1.10;;;22.60;56.80;;;;;;5069701;28;20742;-44
2023/06/04 08:29:08;;;;;;;3.13;1.40;;;22.70;57.00;;;;;;5072742;28;20668;-44
2023/06/04 08:31:40;;;;;;;2.50;1.40;;;22.70;56.80;;;;;;5072074;28;20198;-44
2023/06/04 08:34:13;;;;;;;2.33;1.40;;;22.70;57.00;;;;;;5070457;28;20224;-44
2023/06/04 08:36:48;;;;;;;2.30;1.30;;;22.60;56.80;;;;;;5053609;28;20185;-45
2023/06/04 08:39:23;;;;;;;4.87;1.40;;;22.60;57.00;;;;;;5055261;28;20650;-45
2023/06/04 08:42:04;;;;;;;1.13;1.00;;;22.70;56.70;;;;;;5071703;28;20543;-45
2023/06/04 08:44:32;;;;;;;1.60;1.00;;;22.70;56.70;;;;;;5049731;28;20182;-45
2023/06/04 08:47:08;;;;;;;1.37;1.27;;;22.70;56.80;;;;;;5070214;28;20201;-44
2023/06/04 08:49:45;;;;;;;1.23;1.10;;;22.70;56.20;;;;;;5059841;28;20193;-44
2023/06/04 08:52:48;;;;;;;1.67;1.40;;;22.70;56.00;;;;;;5072853;28;20186;-43
2023/06/04 08:55:18;;;;;;;1.17;1.07;;;22.70;55.70;;;;;;5058501;28;20217;-43
2023/06/04 08:57:54;;;;;;;2.50;1.23;;;22.70;55.60;;;;;;5074357;28;20291;-43
2023/06/04 09:00:27;;;;;;;1.77;1.30;;;22.70;55.50;;;;;;5055385;28;20217;-44
2023/06/04 09:03:01;;;;;;;3.27;1.43;;;22.70;55.50;;;;;;5066481;28;20193;-43
2023/06/04 09:05:49;;;;;;;1.43;1.07;;;22.70;55.10;;;;;;5056784;28;20263;-43
2023/06/04 09:08:37;;;;;;;2.30;1.17;;;22.70;54.90;;;;;;5051412;28;20281;-44
2023/06/04 09:11:13;;;;;;;2.07;1.03;;;22.70;54.70;;;;;;5056019;28;20205;-44
2023/06/04 09:13:48;;;;;;;1.57;1.10;;;22.70;55.00;;;;;;5071319;28;20205;-44
2023/06/04 09:16:25;;;;;;;1.27;1.17;;;22.70;54.80;;;;;;5068902;28;20532;-45
2023/06/04 09:18:55;;;;;;;2.13;1.20;;;22.80;54.80;;;;;;5072166;28;20236;-45
2023/06/04 09:21:25;;;;;;;1.20;1.07;;;22.70;54.40;;;;;;5068506;28;20209;-43
2023/06/04 09:23:57;;;;;;;2.83;1.10;;;22.80;54.40;;;;;;5068319;28;20298;-44
2023/06/04 09:26:28;;;;;;;1.10;0.83;;;22.80;53.90;;;;;;5068477;28;20580;-44
2023/06/04 09:29:00;;;;;;;1.33;0.90;;;22.80;53.80;;;;;;5070027;28;20233;-45
2023/06/04 09:31:31;;;;;;;1.33;0.90;;;22.80;53.50;;;;;;5069695;28;20204;-44
2023/06/04 09:34:03;;;;;;;1.57;1.20;;;22.80;53.50;;;;;;5069301;28;20220;-44
2023/06/04 09:36:36;;;;;;;1.63;1.20;;;22.80;53.20;;;;;;5051157;28;20234;-44
2023/06/04 09:39:18;;;;;;;1.30;1.20;;;22.80;53.10;;;;;;5071428;28;20533;-44
2023/06/04 09:42:02;;;;;;;1.00;0.93;;;22.80;52.10;;;;;;5062659;28;20228;-44
2023/06/04 09:44:30;;;;;;;1.77;1.00;;;22.80;52.30;;;;;;5031698;28;20209;-44
2023/06/04 09:47:03;;;;;;;1.50;1.00;;;22.80;52.50;;;;;;5071470;28;20224;-44
2023/06/04 09:49:45;;;;;;;2.03;1.17;;;22.90;52.70;;;;;;5069624;28;20518;-45
2023/06/04 09:52:14;;;;;;;1.03;0.93;;;22.90;52.80;;;;;;5057638;28;20209;-44
2023/06/04 09:54:45;;;;;;;1.20;1.10;;;22.90;52.80;;;;;;5046936;28;20674;-44
2023/06/04 09:57:18;;;;;;;1.17;1.07;;;22.90;52.90;;;;;;5070654;28;20201;-45
2023/06/04 09:59:49;;;;;;;2.17;1.17;;;22.90;52.30;;;;;;5052250;28;20206;-43
2023/06/04 10:02:24;;;;;;;1.60;1.20;;;22.90;51.70;;;;;;5036390;28;20196;-44
2023/06/04 10:04:58;;;;;;;2.23;1.03;;;22.90;51.70;;;;;;5052050;28;20209;-44
2023/06/04 10:07:30;;;;;;;1.53;1.03;;;22.90;51.30;;;;;;5032052;28;20198;-44
2023/06/04 10:10:01;;;;;;;1.50;1.00;;;22.90;52.10;;;;;;5064235;28;20538;-44
2023/06/04 10:12:33;;;;;;;1.13;1.03;;;23.00;50.80;;;;;;5054927;28;20259;-43
2023/06/04 10:15:11;;;;;;;1.23;1.13;;;23.00;51.50;;;;;;5038405;28;20650;-44
2023/06/04 10:17:41;;;;;;;1.27;0.90;;;23.00;51.50;;;;;;5039547;28;20185;-44
2023/06/04 10:20:12;;;;;;;1.10;0.97;;;23.00;51.20;;;;;;5037216;28;20202;-43
2023/06/04 10:22:43;;;;;;;0.80;0.80;;;23.00;51.60;;;;;;5064083;28;20415;-44
2023/06/04 10:25:13;;;;;;;2.67;1.20;;;23.00;50.60;;;;;;5051976;28;20207;-44
2023/06/04 10:27:46;;;;;;;2.43;0.80;;;23.00;49.50;;;;;;5053241;28;20196;-43
2023/06/04 10:30:18;;;;;;;1.20;1.00;;;23.00;49.30;;;;;;5070658;28;20263;-45
2023/06/04 10:32:50;;;;;;;2.30;0.77;;;23.10;50.10;;;;;;5036410;28;20311;-43
2023/06/04 10:35:34;;;;;;;2.07;1.10;;;23.00;49.30;;;;;;5053904;28;20700;-43
2023/06/04 10:38:11;;;;;;;1.17;0.93;;;23.10;50.50;;;;;;5073441;28;20197;-45
2023/06/04 10:40:43;;;;;;;0.80;0.80;;;23.10;50.80;;;;;;5050933;28;20732;-44
2023/06/04 10:43:13;;;;;;;0.80;0.80;;;23.10;49.90;;;;;;5068665;28;20263;-43
2023/06/04 10:45:45;;;;;;;1.00;0.87;;;23.10;50.80;;;;;;5037447;28;20198;-44
2023/06/04 10:48:14;;;;;;;0.70;0.67;;;23.10;49.60;;;;;;5069478;28;20197;-46
2023/06/04 10:50:55;;;;;;;1.33;1.20;;;23.10;50.40;;;;;;5067565;28;20282;-44
2023/06/04 10:53:36;;;;;;;1.53;1.10;;;23.10;51.10;;;;;;5069252;28;20262;-44
2023/06/04 10:56:06;;;;;;;1.00;0.90;;;23.10;51.00;;;;;;5044066;28;20194;-44
2023/06/04 10:58:37;;;;;;;0.90;0.90;;;23.20;50.50;;;;;;5058423;28;20206;-43
2023/06/04 11:01:08;;;;;;;1.10;1.00;;;23.20;51.00;;;;;;5076433;28;20258;-46
2023/06/04 11:03:38;;;;;;;1.43;0.80;;;23.20;49.30;;;;;;5065642;28;20674;-44
2023/06/04 11:06:17;;;;;;;1.30;1.20;;;23.20;51.00;;;;;;5050786;28;20911;-43
2023/06/04 11:08:49;;;;;;;1.40;1.00;;;23.20;50.70;;;;;;5059503;28;20278;-44
2023/06/04 11:11:21;;;;;;;0.90;0.90;;;23.20;50.00;;;;;;5052440;28;20240;-43
2023/06/04 11:13:49;;;;;;;0.87;0.83;;;23.20;50.40;;;;;;5069493;28;20212;-44
2023/06/04 11:16:21;;;;;;;1.37;1.03;;;23.20;49.80;;;;;;5069014;28;20201;-44
2023/06/04 11:19:04;;;;;;;2.40;1.00;;;23.20;47.40;;;;;;5039121;28;20784;-44
2023/06/04 11:21:39;;;;;;;1.40;1.00;;;23.30;49.00;;;;;;5065721;28;20580;-45
2023/06/04 11:24:19;;;;;;;1.00;0.90;;;23.30;50.00;;;;;;5047138;28;20261;-44
2023/06/04 11:26:46;;;;;;;2.07;1.00;;;23.30;49.40;;;;;;5065698;28;20186;-43
2023/06/04 11:29:38;;;;;;;1.03;0.87;;;23.30;50.50;;;;;;5055033;28;20642;-43
2023/06/04 11:32:08;;;;;;;0.80;0.80;;;23.30;50.20;;;;;;5069157;28;20205;-44
2023/06/04 11:34:39;;;;;;;1.10;1.00;;;23.30;50.40;;;;;;5063796;28;20625;-45
2023/06/04 11:37:11;;;;;;;2.47;1.00;;;23.40;50.30;;;;;;5068689;28;20186;-44
2023/06/04 11:39:42;;;;;;;2.40;0.90;;;23.40;50.40;;;;;;5068738;28;20654;-44
2023/06/04 11:42:13;;;;;;;1.30;0.90;;;23.40;50.30;;;;;;5046840;28;20320;-44
2023/06/04 11:44:48;;;;;;;1.47;1.00;;;23.40;50.10;;;;;;5064667;28;20194;-43
2023/06/04 11:47:17;;;;;;;1.00;1.00;;;23.40;50.40;;;;;;5069245;28;20208;-44
2023/06/04 11:49:53;;;;;;;1.40;0.90;;;23.40;50.30;;;;;;5070088;28;20201;-43
2023/06/04 11:52:38;;;;;;;1.20;1.10;;;23.50;49.20;;;;;;5066665;28;20193;-44
2023/06/04 11:55:17;;;;;;;1.37;1.10;;;23.40;49.20;;;;;;5075493;28;20580;-43
2023/06/04 11:57:59;;;;;;;2.37;1.20;;;23.40;49.50;;;;;;5073256;28;20240;-45
2023/06/04 12:00:31;;;;;;;1.13;1.07;;;23.50;49.50;;;;;;5073700;28;20209;-44
2023/06/04 12:03:03;;;;;;;2.47;1.17;;;23.50;49.50;;;;;;5073835;28;20525;-46
2023/06/04 12:05:34;;;;;;;1.07;1.00;;;23.50;49.50;;;;;;5075881;28;20223;-44
2023/06/04 12:08:11;;;;;;;1.30;1.20;;;23.60;50.20;;;;;;5075519;28;20698;-43
2023/06/04 12:10:42;;;;;;;1.77;1.00;;;23.60;50.20;;;;;;5071600;28;20330;-43
2023/06/04 12:13:12;;;;;;;1.20;1.10;;;23.60;50.00;;;;;;5064517;28;20670;-43
2023/06/04 12:15:41;;;;;;;0.97;0.90;;;23.60;49.80;;;;;;5075153;28;20197;-43
2023/06/04 12:18:10;;;;;;;2.87;1.20;;;23.60;49.80;;;;;;5074920;28;21022;-46
2023/06/04 12:20:41;;;;;;;2.00;1.13;;;23.70;49.50;;;;;;5066105;28;20229;-44
2023/06/04 12:23:26;;;;;;;1.03;0.90;;;23.70;49.40;;;;;;5077607;28;20189;-43
2023/06/04 12:25:55;;;;;;;1.03;1.00;;;23.70;49.70;;;;;;5078586;28;20193;-44
2023/06/04 12:28:26;;;;;;;1.50;0.90;;;23.70;49.80;;;;;;5078831;28;20276;-44
2023/06/04 12:30:55;;;;;;;1.07;0.97;;;23.70;49.90;;;;;;5079496;28;20193;-43
2023/06/04 12:33:26;;;;;;;1.33;1.17;;;23.70;49.30;;;;;;5077534;28;20245;-44
2023/06/04 12:35:57;;;;;;;1.23;1.10;;;23.80;49.80;;;;;;5080978;28;20535;-45
2023/06/04 12:38:26;;;;;;;1.13;1.10;;;23.80;49.70;;;;;;5077665;28;20261;-44
2023/06/04 12:40:57;;;;;;;1.53;1.30;;;23.80;49.90;;;;;;5075096;28;20233;-44
2023/06/04 12:43:33;;;;;;;1.33;1.00;;;23.80;49.70;;;;;;5058145;28;20881;-43
2023/06/04 12:46:05;;;;;;;1.33;1.10;;;23.80;50.00;;;;;;5073059;28;20639;-44
2023/06/04 12:48:36;;;;;;;1.30;1.20;;;23.80;49.70;;;;;;5072642;28;20194;-44
2023/06/04 12:51:08;;;;;;;1.23;1.10;;;23.90;49.40;;;;;;5074253;28;20650;-44
2023/06/04 12:53:46;;;;;;;1.33;1.20;;;23.90;50.10;;;;;;5057911;28;20308;-44
2023/06/04 12:56:18;;;;;;;2.13;0.97;;;23.90;49.60;;;;;;5074297;28;20206;-43
2023/06/04 12:58:48;;;;;;;1.23;1.00;;;23.90;49.60;;;;;;5069808;28;20205;-44
2023/06/04 13:01:17;;;;;;;1.83;1.10;;;23.90;49.90;;;;;;5075076;28;20249;-52
2023/06/04 13:03:46;;;;;;;2.00;1.30;;;23.90;50.00;;;;;;5057482;28;20189;-44
2023/06/04 13:06:17;;;;;;;0.93;0.90;;;23.90;49.60;;;;;;5072434;28;20189;-44
2023/06/04 13:08:46;;;;;;;1.40;1.07;;;24.00;49.90;;;;;;5066466;28;20218;-44
2023/06/04 13:11:19;;;;;;;1.37;0.93;;;24.00;50.20;;;;;;5071553;28;20216;-44
2023/06/04 13:13:51;;;;;;;2.30;0.90;;;24.00;50.50;;;;;;5071474;28;20186;-43
2023/06/04 13:16:23;;;;;;;0.93;0.90;;;24.00;50.80;;;;;;5070065;28;20210;-43